Time;durP1;ratioP1;P1;durP2;ratioP2;P2;SDS_P1;SDS_P2;PMS_P1;PMS_P2;Temp;Humidity;BMP_temperature;BMP_pressure;BME280_temperature;BME280_humidity;BME280_pressure;Samples;Min_cycle;Max_cycle;Signal;HPM_P1;HPM_P2
2022/11/17 00:01:23;;;;;;;25.83;19.13;;;8.10;99.90;;;;;;5057442;28;20188;-75
2022/11/17 00:03:49;;;;;;;28.13;21.17;;;8.20;99.90;;;;;;5057531;28;20202;-75
2022/11/17 00:06:16;;;;;;;32.10;22.98;;;8.10;99.90;;;;;;5058221;28;20217;-75
2022/11/17 00:08:42;;;;;;;28.67;20.55;;;8.00;99.90;;;;;;5058945;28;20181;-75
2022/11/17 00:11:08;;;;;;;29.40;20.35;;;8.10;99.90;;;;;;5058496;28;20174;-76
2022/11/17 00:16:20;;;;;;;27.10;20.27;;;8.10;99.90;;;;;;5057878;28;20284;-76
2022/11/17 00:21:51;;;;;;;30.13;20.75;;;8.10;99.90;;;;;;5056065;28;20323;-76
2022/11/17 00:24:17;;;;;;;27.63;20.58;;;8.10;99.90;;;;;;5056439;28;20186;-76
2022/11/17 00:27:00;;;;;;;27.77;20.85;;;8.10;99.90;;;;;;5046028;28;20222;-76
2022/11/17 00:29:27;;;;;;;27.42;20.52;;;8.10;99.90;;;;;;5056391;28;20182;-76
2022/11/17 00:34:38;;;;;;;26.27;20.35;;;8.10;99.90;;;;;;5058107;28;20308;-76
2022/11/17 00:37:04;;;;;;;26.75;20.48;;;8.20;99.90;;;;;;5056739;28;20230;-76
2022/11/17 00:39:31;;;;;;;28.58;20.75;;;8.20;99.90;;;;;;5055286;28;20525;-76
2022/11/17 00:42:22;;;;;;;30.90;21.80;;;8.30;99.90;;;;;;5056023;28;20221;-76
2022/11/17 00:44:48;;;;;;;29.27;21.30;;;8.20;99.90;;;;;;5057341;28;20158;-76
2022/11/17 00:47:13;;;;;;;27.38;20.75;;;8.10;99.90;;;;;;5056716;28;20210;-75
2022/11/17 00:49:39;;;;;;;27.92;21.48;;;8.20;99.90;;;;;;5057317;28;20166;-75
2022/11/17 00:52:05;;;;;;;30.05;20.77;;;8.10;99.90;;;;;;5055940;28;20216;-75
2022/11/17 00:54:30;;;;;;;29.65;20.60;;;8.10;99.90;;;;;;5056042;28;20224;-75
2022/11/17 00:56:56;;;;;;;28.10;21.58;;;8.20;99.90;;;;;;5055329;28;20202;-75
2022/11/17 00:59:21;;;;;;;27.98;21.25;;;8.20;99.90;;;;;;5056698;28;20275;-76
2022/11/17 01:01:47;;;;;;;30.20;21.02;;;8.20;99.90;;;;;;5057487;28;20267;-76
2022/11/17 01:04:14;;;;;;;34.25;22.75;;;8.10;99.90;;;;;;5058733;28;20177;-76
2022/11/17 01:06:45;;;;;;;27.55;21.08;;;8.10;99.90;;;;;;5058931;28;20263;-76
2022/11/17 01:09:12;;;;;;;30.88;21.75;;;8.20;99.90;;;;;;5060224;28;20174;-76
2022/11/17 01:11:39;;;;;;;28.13;20.58;;;8.20;99.90;;;;;;5059810;28;20185;-76
2022/11/17 01:14:05;;;;;;;25.80;20.00;;;8.20;99.90;;;;;;5059798;28;20186;-76
2022/11/17 01:16:31;;;;;;;25.63;20.48;;;8.20;99.90;;;;;;5057755;28;20272;-76
2022/11/17 01:18:59;;;;;;;28.10;21.42;;;8.30;99.90;;;;;;5057051;28;20178;-76
2022/11/17 01:21:26;;;;;;;30.02;21.73;;;8.20;99.90;;;;;;5056128;28;20269;-76
2022/11/17 01:23:54;;;;;;;27.40;20.63;;;8.30;99.90;;;;;;5056224;28;20182;-76
2022/11/17 01:26:25;;;;;;;30.40;22.00;;;8.20;99.90;;;;;;5056720;28;20214;-76
2022/11/17 01:28:51;;;;;;;28.45;20.08;;;8.20;99.90;;;;;;5056330;28;20595;-76
2022/11/17 01:31:19;;;;;;;26.58;19.98;;;8.10;99.90;;;;;;5057879;28;20174;-76
2022/11/17 01:33:48;;;;;;;27.73;20.33;;;8.10;99.90;;;;;;5057092;28;20181;-76
2022/11/17 01:36:19;;;;;;;26.30;19.02;;;8.10;99.90;;;;;;5057142;28;20713;-76
2022/11/17 01:38:45;;;;;;;29.38;20.27;;;8.10;99.90;;;;;;5056119;28;20185;-76
2022/11/17 01:41:16;;;;;;;24.15;19.17;;;8.10;99.90;;;;;;5056443;28;20189;-76
2022/11/17 01:43:57;;;;;;;21.75;19.00;;;8.20;99.90;;;;;;5056816;28;20189;-76
2022/11/17 01:46:40;;;;;;;23.52;18.48;;;8.20;99.90;;;;;;5056084;28;20255;-76
2022/11/17 01:49:13;;;;;;;23.20;18.52;;;8.20;99.90;;;;;;5055543;28;20174;-76
2022/11/17 01:51:43;;;;;;;23.75;18.38;;;8.20;99.90;;;;;;5055328;28;20174;-76
2022/11/17 01:54:11;;;;;;;23.95;18.42;;;8.20;99.90;;;;;;5055572;28;20178;-76
2022/11/17 01:56:41;;;;;;;23.23;17.90;;;8.20;99.90;;;;;;5055219;28;20244;-75
2022/11/17 01:59:15;;;;;;;23.20;18.17;;;8.20;99.90;;;;;;5055867;28;20178;-75
2022/11/17 02:01:54;;;;;;;23.30;19.40;;;8.20;99.90;;;;;;5056615;28;20245;-75
2022/11/17 02:04:29;;;;;;;25.27;19.60;;;8.10;99.90;;;;;;5056060;28;20181;-75
2022/11/17 02:07:31;;;;;;;24.45;19.63;;;8.00;99.90;;;;;;5056495;28;20218;-75
2022/11/17 02:09:58;;;;;;;23.10;18.63;;;8.00;99.90;;;;;;5053472;28;20612;-75
2022/11/17 02:12:25;;;;;;;23.73;18.83;;;8.00;99.90;;;;;;5055330;28;20177;-75
2022/11/17 02:14:52;;;;;;;25.52;19.52;;;7.90;99.90;;;;;;5055520;28;20174;-75
2022/11/17 02:17:20;;;;;;;24.92;19.98;;;7.90;99.90;;;;;;5055879;28;20198;-75
2022/11/17 02:20:09;;;;;;;26.27;19.10;;;7.80;99.90;;;;;;5056734;28;20174;-75
2022/11/17 02:23:21;;;;;;;26.27;18.73;;;7.80;99.90;;;;;;5056641;28;20179;-75
2022/11/17 02:26:14;;;;;;;24.60;18.95;;;7.70;99.90;;;;;;5044908;28;20206;-75
2022/11/17 02:29:23;;;;;;;26.25;18.63;;;7.80;99.90;;;;;;5055932;28;20170;-75
2022/11/17 02:32:05;;;;;;;24.40;18.10;;;7.80;99.90;;;;;;5041602;28;20181;-75
2022/11/17 02:34:41;;;;;;;23.63;18.00;;;7.70;99.90;;;;;;5054940;28;20174;-75
2022/11/17 02:37:20;;;;;;;21.95;18.27;;;7.80;99.90;;;;;;5056400;28;20729;-75
2022/11/17 02:39:59;;;;;;;22.83;18.02;;;7.70;99.90;;;;;;5054537;28;20174;-75
2022/11/17 02:45:23;;;;;;;21.65;17.13;;;7.80;99.90;;;;;;5056902;28;20228;-75
2022/11/17 02:47:53;;;;;;;21.60;17.83;;;7.80;99.90;;;;;;5054778;28;20229;-75
2022/11/17 02:50:20;;;;;;;21.73;18.00;;;7.80;99.90;;;;;;5055609;28;20169;-76
2022/11/17 02:52:46;;;;;;;21.73;17.75;;;7.80;99.90;;;;;;5054455;28;20178;-75
2022/11/17 02:55:13;;;;;;;23.83;18.77;;;7.80;99.90;;;;;;5054169;28;20181;-75
2022/11/17 02:57:40;;;;;;;21.42;17.30;;;7.80;99.90;;;;;;5055011;28;20198;-75
2022/11/17 03:00:12;;;;;;;20.83;17.13;;;7.70;99.90;;;;;;5055222;28;20177;-75
2022/11/17 03:02:46;;;;;;;22.23;17.58;;;7.80;99.90;;;;;;5054195;28;20170;-75
2022/11/17 03:05:46;;;;;;;21.55;17.33;;;7.80;99.90;;;;;;5054520;28;20531;-75
2022/11/17 03:08:16;;;;;;;23.38;16.73;;;7.80;99.90;;;;;;5053607;28;20222;-75
2022/11/17 03:10:59;;;;;;;22.73;17.73;;;7.80;99.90;;;;;;5054279;28;20206;-75
2022/11/17 03:13:50;;;;;;;21.95;16.60;;;7.80;99.90;;;;;;5054730;28;20175;-75
2022/11/17 03:16:18;;;;;;;20.85;17.27;;;7.90;99.90;;;;;;5054118;28;20209;-75
2022/11/17 03:19:28;;;;;;;21.65;17.35;;;7.90;99.90;;;;;;5054694;28;20178;-75
2022/11/17 03:22:11;;;;;;;22.63;17.35;;;7.80;99.90;;;;;;5049454;28;20197;-75
2022/11/17 03:24:41;;;;;;;24.25;17.25;;;7.80;99.90;;;;;;5053968;28;20186;-75
2022/11/17 03:27:25;;;;;;;22.33;17.23;;;7.80;99.90;;;;;;5053786;28;20267;-75
2022/11/17 03:29:56;;;;;;;20.77;16.35;;;7.80;99.90;;;;;;5054109;28;20174;-75
2022/11/17 03:32:23;;;;;;;19.83;16.38;;;7.80;99.90;;;;;;5054813;28;20178;-75
2022/11/17 03:34:55;;;;;;;19.58;16.77;;;7.90;99.90;;;;;;5054192;28;20178;-75
2022/11/17 03:37:22;;;;;;;20.65;16.98;;;7.90;99.90;;;;;;5054021;28;20214;-75
2022/11/17 03:39:58;;;;;;;19.08;16.05;;;7.90;99.90;;;;;;5054395;28;20185;-75
2022/11/17 03:42:28;;;;;;;20.98;15.30;;;7.90;99.90;;;;;;5053812;28;20264;-75
2022/11/17 03:45:09;;;;;;;17.10;15.20;;;7.90;99.90;;;;;;5053506;28;20182;-75
2022/11/17 03:47:36;;;;;;;20.58;15.63;;;7.90;99.90;;;;;;5054392;28;20225;-75
2022/11/17 03:50:11;;;;;;;16.15;14.18;;;7.90;99.90;;;;;;5055974;28;20202;-75
2022/11/17 03:52:37;;;;;;;18.52;15.20;;;7.90;99.90;;;;;;5057416;28;20177;-75
2022/11/17 03:55:04;;;;;;;16.33;14.57;;;7.90;99.90;;;;;;5057155;28;20215;-75
2022/11/17 03:57:42;;;;;;;16.55;14.43;;;7.90;99.90;;;;;;5057314;28;20201;-75
2022/11/17 04:00:14;;;;;;;16.35;14.55;;;7.80;99.90;;;;;;5058030;28;20155;-75
2022/11/17 04:02:45;;;;;;;15.82;14.25;;;7.80;99.90;;;;;;5058161;28;20174;-75
2022/11/17 04:05:14;;;;;;;16.70;15.00;;;7.80;99.90;;;;;;5057493;28;20166;-75
2022/11/17 04:07:45;;;;;;;18.85;14.23;;;7.80;99.90;;;;;;5058596;28;20194;-75
2022/11/17 04:10:22;;;;;;;16.35;14.38;;;7.80;99.90;;;;;;5056899;28;20162;-75
2022/11/17 04:18:18;;;;;;;16.05;14.23;;;7.80;99.90;;;;;;5058267;28;20348;-75
2022/11/17 04:20:44;;;;;;;15.68;14.07;;;7.80;99.90;;;;;;5058511;28;20181;-75
2022/11/17 04:23:13;;;;;;;15.85;14.20;;;7.80;99.90;;;;;;5057307;28;20182;-75
2022/11/17 04:28:37;;;;;;;15.98;14.00;;;7.80;99.90;;;;;;5058633;28;20208;-75
2022/11/17 04:31:07;;;;;;;15.82;14.20;;;7.90;99.90;;;;;;5058464;28;20193;-75
2022/11/17 04:33:33;;;;;;;16.52;14.65;;;7.90;99.90;;;;;;5057834;28;20173;-75
2022/11/17 04:35:58;;;;;;;16.65;14.95;;;7.80;99.90;;;;;;5056773;28;20208;-75
2022/11/17 04:38:24;;;;;;;17.52;14.05;;;7.80;99.90;;;;;;5055979;28;20182;-75
2022/11/17 04:43:37;;;;;;;16.48;14.68;;;7.80;99.90;;;;;;5058913;28;20177;-75
2022/11/17 04:46:02;;;;;;;17.55;14.63;;;7.80;99.90;;;;;;5057931;28;20202;-75
2022/11/17 04:48:28;;;;;;;18.42;15.60;;;7.80;99.90;;;;;;5056194;28;20181;-75
2022/11/17 04:50:55;;;;;;;16.75;14.60;;;7.80;99.90;;;;;;5056457;28;20170;-75
2022/11/17 04:53:22;;;;;;;16.40;14.70;;;7.80;99.90;;;;;;5058057;28;20209;-75
2022/11/17 04:55:47;;;;;;;17.17;14.32;;;7.80;99.90;;;;;;5056162;28;20182;-75
2022/11/17 04:58:13;;;;;;;16.95;15.15;;;7.80;99.90;;;;;;5056297;28;20205;-75
2022/11/17 05:00:38;;;;;;;16.95;13.63;;;7.80;99.90;;;;;;5055697;28;20226;-75
2022/11/17 05:03:04;;;;;;;16.27;14.23;;;7.90;99.90;;;;;;5056452;28;20181;-75
2022/11/17 05:05:29;;;;;;;19.00;14.95;;;7.90;99.90;;;;;;5055934;28;20202;-75
2022/11/17 05:07:55;;;;;;;15.82;14.13;;;7.80;99.90;;;;;;5055965;28;20201;-75
2022/11/17 05:13:20;;;;;;;17.85;15.43;;;7.90;99.90;;;;;;5055873;28;20579;-76
2022/11/17 05:13:24;;;;;;;16.73;14.57;;;7.80;99.90;;;;;;5056863;28;20170;-76
2022/11/17 05:18:39;;;;;;;16.90;14.35;;;7.90;99.90;;;;;;5057795;28;20244;-75
2022/11/17 05:21:06;;;;;;;19.05;15.65;;;7.90;99.90;;;;;;5056874;28;20185;-76
2022/11/17 05:26:16;;;;;;;16.63;14.70;;;7.80;99.90;;;;;;5056465;28;20225;-75
2022/11/17 05:28:42;;;;;;;18.92;15.05;;;7.80;99.90;;;;;;5056887;28;20170;-76
2022/11/17 05:31:11;;;;;;;17.15;15.32;;;7.80;99.90;;;;;;5055481;28;20174;-76
2022/11/17 05:33:37;;;;;;;19.48;15.80;;;7.80;99.90;;;;;;5055707;28;20647;-76
2022/11/17 05:36:03;;;;;;;16.85;15.07;;;7.80;99.90;;;;;;5055021;28;20174;-76
2022/11/17 05:38:28;;;;;;;17.90;15.85;;;7.80;99.90;;;;;;5055090;28;20228;-76
2022/11/17 05:40:54;;;;;;;16.98;15.13;;;7.80;99.90;;;;;;5054863;28;20196;-76
2022/11/17 05:43:21;;;;;;;17.48;14.85;;;7.80;99.90;;;;;;5054807;28;20184;-76
2022/11/17 05:45:47;;;;;;;18.05;14.88;;;7.80;99.90;;;;;;5054381;28;20273;-78
2022/11/17 05:48:12;;;;;;;18.58;15.55;;;7.80;99.90;;;;;;5054500;28;20229;-76
2022/11/17 05:50:38;;;;;;;18.48;15.25;;;7.80;99.90;;;;;;5056378;28;20202;-80
2022/11/17 05:53:04;;;;;;;18.17;15.73;;;7.80;99.90;;;;;;5054246;28;20173;-76
2022/11/17 05:55:30;;;;;;;19.00;15.00;;;7.80;99.90;;;;;;5054864;28;20205;-75
2022/11/17 05:58:00;;;;;;;18.50;14.75;;;7.80;99.90;;;;;;5054623;28;20244;-76
2022/11/17 06:00:26;;;;;;;18.10;14.70;;;7.90;99.90;;;;;;5055102;28;20170;-77
2022/11/17 06:02:57;;;;;;;18.17;15.48;;;7.90;99.90;;;;;;5055079;28;20204;-76
2022/11/17 06:05:24;;;;;;;17.65;15.23;;;7.80;99.90;;;;;;5039515;28;20197;-76
2022/11/17 06:08:10;;;;;;;18.88;16.08;;;7.80;99.90;;;;;;5054415;28;20195;-75
2022/11/17 06:10:38;;;;;;;19.00;15.73;;;7.80;99.90;;;;;;5055466;28;20166;-75
2022/11/17 06:13:04;;;;;;;20.13;15.30;;;7.80;99.90;;;;;;5054484;28;20273;-75
2022/11/17 06:15:33;;;;;;;16.15;14.45;;;7.80;99.90;;;;;;5054634;28;20217;-75
2022/11/17 06:18:08;;;;;;;17.08;15.27;;;7.90;99.90;;;;;;5054811;28;20205;-75
2022/11/17 06:20:40;;;;;;;19.90;16.10;;;7.90;99.90;;;;;;5056449;28;20169;-75
2022/11/17 06:23:07;;;;;;;17.77;15.88;;;7.90;99.90;;;;;;5056218;28;20204;-76
2022/11/17 06:25:35;;;;;;;16.90;14.88;;;7.90;99.90;;;;;;5054492;28;20669;-76
2022/11/17 06:28:03;;;;;;;17.13;14.32;;;7.90;99.90;;;;;;5054852;28;20210;-76
2022/11/17 06:30:29;;;;;;;17.58;14.57;;;7.90;99.90;;;;;;5054262;28;20182;-76
2022/11/17 06:33:09;;;;;;;20.40;15.35;;;7.90;99.90;;;;;;5054282;28;20241;-76
2022/11/17 06:35:35;;;;;;;19.90;15.00;;;7.80;99.90;;;;;;5054777;28;20193;-76
2022/11/17 06:38:01;;;;;;;19.02;14.60;;;7.80;99.90;;;;;;5054808;28;20205;-76
2022/11/17 06:40:27;;;;;;;18.25;14.63;;;7.80;99.90;;;;;;5053941;28;20229;-76
2022/11/17 06:43:02;;;;;;;18.75;14.98;;;7.90;99.90;;;;;;5054497;28;20224;-75
2022/11/17 06:45:33;;;;;;;16.17;14.23;;;7.90;99.90;;;;;;5055536;28;20224;-76
2022/11/17 06:47:58;;;;;;;15.73;13.40;;;7.90;99.90;;;;;;5053191;28;20193;-76
2022/11/17 06:50:24;;;;;;;18.50;14.63;;;7.90;99.90;;;;;;5054701;28;20177;-76
2022/11/17 06:52:50;;;;;;;17.85;15.10;;;7.90;99.90;;;;;;5055530;28;20217;-76
2022/11/17 06:55:15;;;;;;;18.20;15.65;;;7.90;99.90;;;;;;5054256;28;20181;-76
2022/11/17 06:57:41;;;;;;;19.05;15.50;;;7.80;99.90;;;;;;5053848;28;20248;-76
2022/11/17 07:00:07;;;;;;;20.02;14.80;;;7.90;99.90;;;;;;5053924;28;20178;-76
2022/11/17 07:02:33;;;;;;;17.95;14.48;;;7.90;99.90;;;;;;5053551;28;20584;-76
2022/11/17 07:05:10;;;;;;;16.75;14.65;;;7.90;99.90;;;;;;5054603;28;20170;-76
2022/11/17 07:07:35;;;;;;;20.13;15.50;;;7.90;99.90;;;;;;5053149;28;20208;-76
2022/11/17 07:10:01;;;;;;;16.55;14.35;;;7.80;99.90;;;;;;5053288;28;20269;-76
2022/11/17 07:12:26;;;;;;;14.48;13.02;;;7.90;99.90;;;;;;5053123;28;20260;-76
2022/11/17 07:14:52;;;;;;;17.52;14.15;;;7.90;99.90;;;;;;5052666;28;20173;-76
2022/11/17 07:17:17;;;;;;;16.63;14.32;;;7.90;99.90;;;;;;5052714;28;20208;-75
2022/11/17 07:19:43;;;;;;;19.85;15.85;;;7.80;99.90;;;;;;5054096;28;20174;-75
2022/11/17 07:22:08;;;;;;;18.83;15.15;;;7.80;99.90;;;;;;5053747;28;20316;-75
2022/11/17 07:24:34;;;;;;;16.58;14.13;;;7.80;99.90;;;;;;5055024;28;20183;-76
2022/11/17 07:26:59;;;;;;;19.58;14.43;;;7.90;99.90;;;;;;5056865;28;20221;-75
2022/11/17 07:29:25;;;;;;;17.38;14.77;;;7.90;99.90;;;;;;5056706;28;20178;-75
2022/11/17 07:31:50;;;;;;;18.80;14.18;;;7.90;99.90;;;;;;5056820;28;20213;-75
2022/11/17 07:34:16;;;;;;;15.80;13.25;;;8.00;99.90;;;;;;5056788;28;20189;-75
2022/11/17 07:36:41;;;;;;;17.27;13.10;;;8.00;99.90;;;;;;5056327;28;20209;-75
2022/11/17 07:39:07;;;;;;;15.18;12.95;;;8.00;99.90;;;;;;5058324;28;20253;-75
2022/11/17 07:41:32;;;;;;;14.25;11.70;;;8.10;99.90;;;;;;5057909;28;20285;-75
2022/11/17 07:43:58;;;;;;;15.57;12.77;;;8.00;99.90;;;;;;5057014;28;20197;-76
2022/11/17 07:46:24;;;;;;;15.30;12.15;;;8.10;99.90;;;;;;5057947;28;20206;-75
2022/11/17 07:48:54;;;;;;;18.02;12.88;;;8.10;99.90;;;;;;5057594;28;20170;-75
2022/11/17 07:51:19;;;;;;;15.95;11.90;;;8.10;99.90;;;;;;5057212;28;20182;-75
2022/11/17 07:53:45;;;;;;;14.00;11.55;;;8.10;99.90;;;;;;5058155;28;20185;-75
2022/11/17 07:56:12;;;;;;;14.27;12.25;;;8.20;99.90;;;;;;5056898;28;20178;-75
2022/11/17 07:58:38;;;;;;;14.88;12.10;;;8.10;99.90;;;;;;5057243;28;20328;-75
2022/11/17 08:01:10;;;;;;;15.05;11.85;;;8.20;99.90;;;;;;5056913;28;20178;-76
2022/11/17 08:03:36;;;;;;;12.65;11.30;;;8.30;99.90;;;;;;5056351;28;20185;-76
2022/11/17 08:06:03;;;;;;;13.98;11.15;;;8.20;99.90;;;;;;5056509;28;20218;-75
2022/11/17 08:08:29;;;;;;;15.77;11.60;;;8.20;99.90;;;;;;5057416;28;20182;-76
2022/11/17 08:10:55;;;;;;;13.48;11.75;;;8.30;99.90;;;;;;5057561;28;20166;-76
2022/11/17 08:13:21;;;;;;;14.80;11.07;;;8.30;99.90;;;;;;5055702;28;20697;-76
2022/11/17 08:15:46;;;;;;;14.13;11.60;;;8.20;99.90;;;;;;5057569;28;20267;-76
2022/11/17 08:18:12;;;;;;;15.65;11.20;;;8.30;99.90;;;;;;5056771;28;20194;-76
2022/11/17 08:20:38;;;;;;;13.68;11.07;;;8.30;99.90;;;;;;5057101;28;20178;-76
2022/11/17 08:23:04;;;;;;;12.73;10.68;;;8.30;99.90;;;;;;5056810;28;20181;-76
2022/11/17 08:25:29;;;;;;;13.27;11.77;;;8.40;99.90;;;;;;5057484;28;20263;-76
2022/11/17 08:27:56;;;;;;;12.18;10.50;;;8.40;99.90;;;;;;5057748;28;20220;-75
2022/11/17 08:30:22;;;;;;;15.20;11.30;;;8.50;99.90;;;;;;5058062;28;20178;-75
2022/11/17 08:32:50;;;;;;;11.95;10.32;;;8.50;99.90;;;;;;5057954;28;20181;-75
2022/11/17 08:35:17;;;;;;;12.30;10.48;;;8.50;99.90;;;;;;5057379;28;20260;-75
2022/11/17 08:37:43;;;;;;;13.00;9.77;;;8.60;99.90;;;;;;5056363;28;20194;-75
2022/11/17 08:40:10;;;;;;;11.48;10.05;;;8.70;99.90;;;;;;5057163;28;20204;-76
2022/11/17 08:42:35;;;;;;;10.75;9.65;;;8.70;99.90;;;;;;5055544;28;20170;-76
2022/11/17 08:45:01;;;;;;;11.93;9.32;;;8.70;99.90;;;;;;5055959;28;20228;-75
2022/11/17 08:47:26;;;;;;;10.98;9.80;;;8.70;99.90;;;;;;5055599;28;20217;-76
2022/11/17 08:49:52;;;;;;;10.60;8.73;;;8.70;99.90;;;;;;5056147;28;20182;-76
2022/11/17 08:52:18;;;;;;;9.65;8.65;;;8.80;99.90;;;;;;5055763;28;20266;-76
2022/11/17 08:54:44;;;;;;;9.90;8.90;;;8.90;99.90;;;;;;5056596;28;20185;-76
2022/11/17 08:57:09;;;;;;;9.40;8.43;;;9.00;99.90;;;;;;5055363;28;20198;-76
2022/11/17 08:59:35;;;;;;;9.77;7.80;;;9.20;99.90;;;;;;5056694;28;20189;-76
2022/11/17 09:02:01;;;;;;;11.95;8.45;;;9.30;99.90;;;;;;5056090;28;20256;-76
2022/11/17 09:04:26;;;;;;;10.82;8.40;;;9.30;99.90;;;;;;5055760;28;20202;-76
2022/11/17 09:06:52;;;;;;;10.57;9.20;;;9.30;99.90;;;;;;5054817;28;20213;-76
2022/11/17 09:09:17;;;;;;;10.20;8.75;;;9.20;99.90;;;;;;5055951;28;20181;-76
2022/11/17 09:11:43;;;;;;;11.60;10.30;;;9.10;99.90;;;;;;5055446;28;20170;-76
2022/11/17 09:14:08;;;;;;;11.45;10.20;;;9.10;99.90;;;;;;5054977;28;20264;-76
2022/11/17 09:16:35;;;;;;;10.85;9.75;;;9.20;99.90;;;;;;5055865;28;20244;-76
2022/11/17 09:19:01;;;;;;;9.20;8.18;;;9.20;99.90;;;;;;5055847;28;20182;-76
2022/11/17 09:21:28;;;;;;;9.48;8.52;;;9.30;99.90;;;;;;5054774;28;20186;-76
2022/11/17 09:23:54;;;;;;;9.15;8.25;;;9.30;99.90;;;;;;5054422;28;20182;-76
2022/11/17 09:26:20;;;;;;;9.93;8.75;;;9.30;99.90;;;;;;5055704;28;20206;-76
2022/11/17 09:28:47;;;;;;;11.60;10.23;;;9.30;99.90;;;;;;5055231;28;20235;-76
2022/11/17 09:31:18;;;;;;;12.10;9.27;;;9.20;99.90;;;;;;5054359;28;20185;-76
2022/11/17 09:33:44;;;;;;;14.57;9.10;;;9.10;99.90;;;;;;5055731;28;20166;-76
2022/11/17 09:36:11;;;;;;;10.18;9.07;;;9.10;99.90;;;;;;5054254;28;20197;-76
2022/11/17 09:38:37;;;;;;;10.30;9.15;;;9.10;99.90;;;;;;5054389;28;20186;-75
2022/11/17 09:41:26;;;;;;;9.90;8.57;;;9.30;99.90;;;;;;5055276;28;20200;-75
2022/11/17 09:44:03;;;;;;;10.38;8.30;;;9.30;99.90;;;;;;5054742;28;20197;-76
2022/11/17 09:47:00;;;;;;;9.60;8.60;;;9.40;99.90;;;;;;5053849;28;20214;-76
2022/11/17 09:49:51;;;;;;;8.15;7.32;;;9.70;99.90;;;;;;5053777;28;20303;-76
2022/11/17 09:52:29;;;;;;;10.57;7.60;;;9.90;99.90;;;;;;5054276;28;20240;-76
2022/11/17 09:55:07;;;;;;;7.80;7.10;;;10.10;99.90;;;;;;5054357;28;20530;-76
2022/11/17 09:57:41;;;;;;;9.70;7.60;;;10.20;99.90;;;;;;5053609;28;20198;-76
2022/11/17 10:00:07;;;;;;;9.02;7.50;;;10.20;99.90;;;;;;5053401;28;20186;-76
2022/11/17 10:02:33;;;;;;;7.78;6.97;;;10.30;99.90;;;;;;5054523;28;20188;-76
2022/11/17 10:04:59;;;;;;;10.15;6.90;;;10.30;99.90;;;;;;5054774;28;20170;-76
2022/11/17 10:07:26;;;;;;;8.30;6.40;;;10.30;99.90;;;;;;5053691;28;20295;-76
2022/11/17 10:09:52;;;;;;;8.32;6.65;;;10.30;99.90;;;;;;5054461;28;20258;-76
2022/11/17 10:12:22;;;;;;;6.97;6.32;;;10.20;99.90;;;;;;5053150;28;20185;-76
2022/11/17 10:14:49;;;;;;;7.80;6.65;;;10.20;99.90;;;;;;5053413;28;20173;-76
2022/11/17 10:17:15;;;;;;;7.43;6.55;;;10.10;99.90;;;;;;5052901;28;20206;-76
2022/11/17 10:19:42;;;;;;;9.57;6.65;;;10.00;99.90;;;;;;5052888;28;20189;-76
2022/11/17 10:22:17;;;;;;;7.15;6.47;;;10.00;99.90;;;;;;5052994;28;20174;-76
2022/11/17 10:24:49;;;;;;;6.85;6.15;;;10.00;99.90;;;;;;5053961;28;20170;-76
2022/11/17 10:27:31;;;;;;;6.43;5.82;;;10.00;99.90;;;;;;5054263;28;20214;-76
2022/11/17 10:30:13;;;;;;;6.82;6.18;;;10.10;99.90;;;;;;5053833;28;20241;-76
2022/11/17 10:32:48;;;;;;;6.13;5.53;;;10.20;99.90;;;;;;5053585;28;20186;-76
2022/11/17 10:35:35;;;;;;;8.48;6.00;;;10.20;99.90;;;;;;5053665;28;20566;-76
2022/11/17 10:38:07;;;;;;;7.15;5.68;;;10.20;99.90;;;;;;5052625;28;20220;-76
2022/11/17 10:40:39;;;;;;;9.27;5.93;;;10.10;99.90;;;;;;5053110;28;20285;-76
2022/11/17 10:43:17;;;;;;;7.63;5.90;;;10.10;99.90;;;;;;5054011;28;20208;-76
2022/11/17 10:45:52;;;;;;;8.43;6.40;;;10.10;99.90;;;;;;5054045;28;20204;-76
2022/11/17 10:48:36;;;;;;;7.07;6.32;;;10.10;99.90;;;;;;5052843;28;20194;-76
2022/11/17 10:51:21;;;;;;;6.75;5.97;;;10.20;99.90;;;;;;5053986;28;20209;-77
2022/11/17 10:54:17;;;;;;;7.38;6.20;;;10.20;99.90;;;;;;5053644;28;20201;-76
2022/11/17 10:56:53;;;;;;;7.20;5.78;;;10.30;99.90;;;;;;5054143;28;20236;-76
2022/11/17 10:59:48;;;;;;;7.18;5.35;;;10.20;99.90;;;;;;5053631;28;20216;-75
2022/11/17 11:02:35;;;;;;;8.93;5.60;;;10.10;99.90;;;;;;5051488;28;20216;-75
2022/11/17 11:05:14;;;;;;;6.55;5.32;;;10.10;99.90;;;;;;5053150;28;20615;-75
2022/11/17 11:07:40;;;;;;;6.93;5.80;;;10.10;99.90;;;;;;5053755;28;20269;-75
2022/11/17 11:10:16;;;;;;;7.53;5.90;;;10.00;99.90;;;;;;5052124;28;20181;-75
2022/11/17 11:12:49;;;;;;;6.65;5.95;;;9.90;99.90;;;;;;5052322;28;20168;-75
2022/11/17 11:15:19;;;;;;;6.22;5.63;;;9.90;99.90;;;;;;5052350;28;20240;-75
2022/11/17 11:17:44;;;;;;;5.80;5.20;;;9.90;99.90;;;;;;5053521;28;20204;-75
2022/11/17 11:20:16;;;;;;;7.53;6.03;;;9.90;99.90;;;;;;5052378;28;20182;-75
2022/11/17 11:22:58;;;;;;;6.10;5.38;;;10.10;99.90;;;;;;5052193;28;20687;-75
2022/11/17 11:25:56;;;;;;;5.68;5.10;;;10.30;99.90;;;;;;5052870;28;20171;-75
2022/11/17 11:28:24;;;;;;;5.60;4.78;;;10.50;99.90;;;;;;5052998;28;20162;-75
2022/11/17 11:31:12;;;;;;;5.93;4.35;;;10.50;99.90;;;;;;5052393;28;20181;-75
2022/11/17 11:33:43;;;;;;;5.07;4.13;;;10.50;99.90;;;;;;5051957;28;20190;-75
2022/11/17 11:36:25;;;;;;;5.35;4.15;;;10.50;99.90;;;;;;5052662;28;20167;-75
2022/11/17 11:38:58;;;;;;;5.03;4.53;;;10.50;99.90;;;;;;5053362;28;20190;-75
2022/11/17 11:41:38;;;;;;;7.07;4.68;;;10.50;99.90;;;;;;5052106;28;20194;-75
2022/11/17 11:44:16;;;;;;;6.32;4.15;;;10.70;99.90;;;;;;5053938;28;20169;-76
2022/11/17 11:47:01;;;;;;;4.97;3.70;;;11.00;99.90;;;;;;5052887;28;20333;-76
2022/11/17 11:49:46;;;;;;;4.47;3.33;;;11.20;99.90;;;;;;5053128;28;20166;-76
2022/11/17 11:52:21;;;;;;;9.70;3.85;;;11.20;99.90;;;;;;5052953;28;20166;-76
2022/11/17 11:54:56;;;;;;;5.40;3.42;;;11.10;99.90;;;;;;5052425;28;20558;-76
2022/11/17 11:57:29;;;;;;;5.55;3.60;;;11.10;99.90;;;;;;5054052;28;20198;-77
2022/11/17 12:00:00;;;;;;;4.78;3.13;;;11.30;99.90;;;;;;5053900;28;20162;-77
2022/11/17 12:03:02;;;;;;;3.47;2.72;;;11.40;99.90;;;;;;5053359;28;20202;-77
2022/11/17 12:05:55;;;;;;;4.78;2.67;;;11.50;99.90;;;;;;5052249;28;20248;-76
2022/11/17 12:09:10;;;;;;;5.03;3.08;;;11.30;99.90;;;;;;5052457;28;20174;-77
2022/11/17 12:14:23;;;;;;;4.60;2.55;;;11.20;99.90;;;;;;5057578;28;20166;-76
2022/11/17 12:16:49;;;;;;;4.25;3.00;;;11.10;99.90;;;;;;5056961;28;20205;-76
2022/11/17 12:19:45;;;;;;;4.05;3.08;;;11.00;99.90;;;;;;5055763;28;20175;-77
2022/11/17 12:22:31;;;;;;;5.53;2.88;;;10.90;99.90;;;;;;5056913;28;20181;-76
2022/11/17 12:25:22;;;;;;;5.22;2.65;;;10.80;99.90;;;;;;5048513;28;20186;-76
2022/11/17 12:27:52;;;;;;;4.22;2.33;;;10.80;99.90;;;;;;5049850;28;20222;-76
2022/11/17 12:30:29;;;;;;;2.83;2.15;;;10.70;99.90;;;;;;5056111;28;20190;-76
2022/11/17 12:32:56;;;;;;;3.65;2.47;;;10.60;99.90;;;;;;5056538;28;20182;-76
2022/11/17 12:35:31;;;;;;;4.10;2.55;;;10.60;99.90;;;;;;5055838;28;20564;-76
2022/11/17 12:38:15;;;;;;;4.43;2.47;;;10.50;99.90;;;;;;5055757;28;20254;-76
2022/11/17 12:40:42;;;;;;;4.45;2.58;;;10.50;99.90;;;;;;5056889;28;20196;-76
2022/11/17 12:43:14;;;;;;;2.80;2.40;;;10.50;99.90;;;;;;5055692;28;20244;-76
2022/11/17 12:45:54;;;;;;;5.38;2.80;;;10.60;99.90;;;;;;5055415;28;20206;-76
2022/11/17 12:48:22;;;;;;;3.42;1.98;;;10.70;99.90;;;;;;5055056;28;20261;-76
2022/11/17 12:50:58;;;;;;;5.57;2.03;;;10.80;99.90;;;;;;5056064;28;20641;-76
2022/11/17 12:53:37;;;;;;;3.35;2.05;;;10.80;99.90;;;;;;5056019;28;20580;-77
2022/11/17 12:56:19;;;;;;;5.50;2.20;;;10.90;99.90;;;;;;5055275;28;20185;-76
2022/11/17 12:58:47;;;;;;;5.05;2.00;;;10.80;99.90;;;;;;5056233;28;20224;-77
2022/11/17 13:01:36;;;;;;;3.70;2.10;;;10.70;99.90;;;;;;5055542;28;20575;-76
2022/11/17 13:04:08;;;;;;;3.33;1.92;;;10.50;99.90;;;;;;5055067;28;20190;-76
2022/11/17 13:06:33;;;;;;;4.45;2.30;;;10.40;99.90;;;;;;5055299;28;20241;-76
2022/11/17 13:09:02;;;;;;;4.03;2.00;;;10.40;99.90;;;;;;5054692;28;20316;-76
2022/11/17 13:11:28;;;;;;;3.92;1.92;;;10.40;99.90;;;;;;5055843;28;20236;-76
2022/11/17 13:14:12;;;;;;;6.75;2.03;;;10.40;99.90;;;;;;5054628;28;20178;-75
2022/11/17 13:16:49;;;;;;;3.50;1.92;;;10.40;99.90;;;;;;5054726;28;20257;-75
2022/11/17 13:19:37;;;;;;;3.80;1.98;;;10.40;99.90;;;;;;5054487;28;20174;-75
2022/11/17 13:22:15;;;;;;;4.70;2.00;;;10.40;99.90;;;;;;5055415;28;20181;-75
2022/11/17 13:24:47;;;;;;;4.50;1.90;;;10.40;99.90;;;;;;5055451;28;20174;-75
2022/11/17 13:27:25;;;;;;;5.28;2.20;;;10.50;99.90;;;;;;5054093;28;20216;-75
2022/11/17 13:30:10;;;;;;;3.60;1.92;;;10.60;99.90;;;;;;5054332;28;20171;-75
2022/11/17 13:32:38;;;;;;;6.88;2.30;;;10.80;99.90;;;;;;5054687;28;20212;-76
2022/11/17 13:35:26;;;;;;;2.80;1.85;;;10.90;99.90;;;;;;5054460;28;20178;-76